sensor_id;sensor_type;location;lat;lon;timestamp;pressure;altitude;pressure_sealevel;temperature
5571;BMP180;2808;51.240;6.794;2022-08-11T00:01:45;101737.00;;;22.90
5571;BMP180;2808;51.240;6.794;2022-08-11T00:04:15;101739.00;;;22.90
5571;BMP180;2808;51.240;6.794;2022-08-11T00:06:45;101741.00;;;22.90
5571;BMP180;2808;51.240;6.794;2022-08-11T00:09:17;101740.00;;;22.90
5571;BMP180;2808;51.240;6.794;2022-08-11T00:11:48;101738.00;;;22.80
5571;BMP180;2808;51.240;6.794;2022-08-11T00:14:18;101737.00;;;22.80
5571;BMP180;2808;51.240;6.794;2022-08-11T00:16:54;101726.00;;;22.70
5571;BMP180;2808;51.240;6.794;2022-08-11T00:19:26;101744.00;;;22.70
5571;BMP180;2808;51.240;6.794;2022-08-11T00:21:55;101734.00;;;22.70
5571;BMP180;2808;51.240;6.794;2022-08-11T00:24:24;101735.00;;;22.70
5571;BMP180;2808;51.240;6.794;2022-08-11T00:26:58;101738.00;;;22.70
5571;BMP180;2808;51.240;6.794;2022-08-11T00:29:26;101733.00;;;22.60
5571;BMP180;2808;51.240;6.794;2022-08-11T00:31:57;101734.00;;;22.60
5571;BMP180;2808;51.240;6.794;2022-08-11T00:34:30;101729.00;;;22.60
5571;BMP180;2808;51.240;6.794;2022-08-11T00:37:00;101729.00;;;22.60
5571;BMP180;2808;51.240;6.794;2022-08-11T00:39:41;101729.00;;;22.50
5571;BMP180;2808;51.240;6.794;2022-08-11T00:42:16;101729.00;;;22.50
5571;BMP180;2808;51.240;6.794;2022-08-11T00:44:55;101731.00;;;22.50
5571;BMP180;2808;51.240;6.794;2022-08-11T00:47:39;101732.00;;;22.50
5571;BMP180;2808;51.240;6.794;2022-08-11T00:50:16;101724.00;;;22.40
5571;BMP180;2808;51.240;6.794;2022-08-11T00:52:58;101727.00;;;22.40
5571;BMP180;2808;51.240;6.794;2022-08-11T01:01:25;101726.00;;;22.30
5571;BMP180;2808;51.240;6.794;2022-08-11T01:04:13;101732.00;;;22.30
5571;BMP180;2808;51.240;6.794;2022-08-11T01:07:07;101736.00;;;22.20
5571;BMP180;2808;51.240;6.794;2022-08-11T01:10:06;101723.00;;;22.20
5571;BMP180;2808;51.240;6.794;2022-08-11T01:12:51;101725.00;;;22.20
5571;BMP180;2808;51.240;6.794;2022-08-11T01:15:54;101720.00;;;22.20
5571;BMP180;2808;51.240;6.794;2022-08-11T01:22:11;101727.00;;;22.20
5571;BMP180;2808;51.240;6.794;2022-08-11T01:41:00;101725.00;;;21.90
5571;BMP180;2808;51.240;6.794;2022-08-11T01:44:02;101720.00;;;21.90
5571;BMP180;2808;51.240;6.794;2022-08-11T01:46:53;101716.00;;;21.90
5571;BMP180;2808;51.240;6.794;2022-08-11T01:49:30;101713.00;;;21.80
5571;BMP180;2808;51.240;6.794;2022-08-11T01:52:12;101715.00;;;21.90
5571;BMP180;2808;51.240;6.794;2022-08-11T01:54:52;101711.00;;;21.90
5571;BMP180;2808;51.240;6.794;2022-08-11T01:57:33;101718.00;;;21.80
5571;BMP180;2808;51.240;6.794;2022-08-11T02:00:08;101722.00;;;21.90
5571;BMP180;2808;51.240;6.794;2022-08-11T02:02:46;101719.00;;;21.90
5571;BMP180;2808;51.240;6.794;2022-08-11T02:05:50;101723.00;;;21.80
5571;BMP180;2808;51.240;6.794;2022-08-11T02:08:36;101715.00;;;21.80
5571;BMP180;2808;51.240;6.794;2022-08-11T02:11:19;101713.00;;;21.80
5571;BMP180;2808;51.240;6.794;2022-08-11T02:14:10;101712.00;;;21.80
5571;BMP180;2808;51.240;6.794;2022-08-11T02:17:01;101712.00;;;21.80
5571;BMP180;2808;51.240;6.794;2022-08-11T02:19:41;101718.00;;;21.70
5571;BMP180;2808;51.240;6.794;2022-08-11T02:22:38;101713.00;;;21.70
5571;BMP180;2808;51.240;6.794;2022-08-11T04:24:15;101726.00;;;20.20
5571;BMP180;2808;51.240;6.794;2022-08-11T04:27:25;101732.00;;;20.20
5571;BMP180;2808;51.240;6.794;2022-08-11T04:30:03;101728.00;;;20.20
5571;BMP180;2808;51.240;6.794;2022-08-11T04:33:01;101728.00;;;20.20
5571;BMP180;2808;51.240;6.794;2022-08-11T04:35:38;101717.00;;;20.20
5571;BMP180;2808;51.240;6.794;2022-08-11T04:38:39;101728.00;;;20.40
5571;BMP180;2808;51.240;6.794;2022-08-11T04:41:50;101716.00;;;20.60
5571;BMP180;2808;51.240;6.794;2022-08-11T04:48:08;101719.00;;;21.10
5571;BMP180;2808;51.240;6.794;2022-08-11T04:51:29;101721.00;;;21.40
5571;BMP180;2808;51.240;6.794;2022-08-11T04:54:27;101725.00;;;21.60
5571;BMP180;2808;51.240;6.794;2022-08-11T04:57:22;101726.00;;;21.90
5571;BMP180;2808;51.240;6.794;2022-08-11T05:00:18;101720.00;;;22.10
5571;BMP180;2808;51.240;6.794;2022-08-11T05:03:47;101725.00;;;22.40
5571;BMP180;2808;51.240;6.794;2022-08-11T05:09:27;101729.00;;;22.80
5571;BMP180;2808;51.240;6.794;2022-08-11T05:12:27;101723.00;;;23.00
5571;BMP180;2808;51.240;6.794;2022-08-11T05:14:57;101723.00;;;23.10
5571;BMP180;2808;51.240;6.794;2022-08-11T05:17:47;101717.00;;;23.30
5571;BMP180;2808;51.240;6.794;2022-08-11T05:20:43;101719.00;;;23.50
5571;BMP180;2808;51.240;6.794;2022-08-11T05:23:31;101734.00;;;23.80
5571;BMP180;2808;51.240;6.794;2022-08-11T05:26:19;101738.00;;;24.10
5571;BMP180;2808;51.240;6.794;2022-08-11T05:29:27;101741.00;;;24.20
5571;BMP180;2808;51.240;6.794;2022-08-11T05:32:20;101745.00;;;24.50
5571;BMP180;2808;51.240;6.794;2022-08-11T05:35:07;101743.00;;;24.70
5571;BMP180;2808;51.240;6.794;2022-08-11T05:37:43;101745.00;;;24.90
5571;BMP180;2808;51.240;6.794;2022-08-11T05:40:30;101752.00;;;25.20
5571;BMP180;2808;51.240;6.794;2022-08-11T05:43:15;101740.00;;;25.40
5571;BMP180;2808;51.240;6.794;2022-08-11T05:46:03;101743.00;;;25.70
5571;BMP180;2808;51.240;6.794;2022-08-11T05:48:49;101748.00;;;25.90
5571;BMP180;2808;51.240;6.794;2022-08-11T05:51:36;101750.00;;;26.00
5571;BMP180;2808;51.240;6.794;2022-08-11T05:54:22;101750.00;;;26.10
5571;BMP180;2808;51.240;6.794;2022-08-11T05:57:08;101753.00;;;25.90
5571;BMP180;2808;51.240;6.794;2022-08-11T05:59:36;101754.00;;;25.60
5571;BMP180;2808;51.240;6.794;2022-08-11T06:02:06;101754.00;;;25.70
5571;BMP180;2808;51.240;6.794;2022-08-11T06:04:34;101751.00;;;26.10
5571;BMP180;2808;51.240;6.794;2022-08-11T06:07:05;101756.00;;;26.50
5571;BMP180;2808;51.240;6.794;2022-08-11T06:09:36;101760.00;;;26.80
5571;BMP180;2808;51.240;6.794;2022-08-11T06:12:06;101752.00;;;27.00
5571;BMP180;2808;51.240;6.794;2022-08-11T06:14:42;101753.00;;;27.00
5571;BMP180;2808;51.240;6.794;2022-08-11T06:17:22;101760.00;;;27.30
5571;BMP180;2808;51.240;6.794;2022-08-11T06:19:50;101754.00;;;27.60
5571;BMP180;2808;51.240;6.794;2022-08-11T06:22:22;101757.00;;;27.70
5571;BMP180;2808;51.240;6.794;2022-08-11T06:24:53;101747.00;;;27.70
5571;BMP180;2808;51.240;6.794;2022-08-11T06:27:22;101748.00;;;27.70
5571;BMP180;2808;51.240;6.794;2022-08-11T06:29:52;101753.00;;;27.90
5571;BMP180;2808;51.240;6.794;2022-08-11T06:32:24;101743.00;;;28.10
5571;BMP180;2808;51.240;6.794;2022-08-11T06:35:06;101749.00;;;28.20
5571;BMP180;2808;51.240;6.794;2022-08-11T06:37:55;101748.00;;;28.40
5571;BMP180;2808;51.240;6.794;2022-08-11T06:40:37;101752.00;;;28.60
5571;BMP180;2808;51.240;6.794;2022-08-11T06:43:42;101745.00;;;28.70
5571;BMP180;2808;51.240;6.794;2022-08-11T06:46:16;101752.00;;;28.80
5571;BMP180;2808;51.240;6.794;2022-08-11T06:48:53;101750.00;;;29.10
5571;BMP180;2808;51.240;6.794;2022-08-11T06:51:21;101753.00;;;29.40
5571;BMP180;2808;51.240;6.794;2022-08-11T06:53:51;101749.00;;;29.60
5571;BMP180;2808;51.240;6.794;2022-08-11T06:56:24;101755.00;;;29.60
5571;BMP180;2808;51.240;6.794;2022-08-11T06:59:10;101757.00;;;29.50
5571;BMP180;2808;51.240;6.794;2022-08-11T07:02:04;101758.00;;;29.30
5571;BMP180;2808;51.240;6.794;2022-08-11T07:04:40;101760.00;;;29.30
5571;BMP180;2808;51.240;6.794;2022-08-11T07:07:36;101767.00;;;29.30
5571;BMP180;2808;51.240;6.794;2022-08-11T07:10:42;101767.00;;;29.40
5571;BMP180;2808;51.240;6.794;2022-08-11T07:13:34;101760.00;;;29.20
5571;BMP180;2808;51.240;6.794;2022-08-11T07:16:24;101768.00;;;29.20
5571;BMP180;2808;51.240;6.794;2022-08-11T07:19:02;101768.00;;;29.60
5571;BMP180;2808;51.240;6.794;2022-08-11T07:21:49;101763.00;;;30.10
5571;BMP180;2808;51.240;6.794;2022-08-11T07:24:38;101762.00;;;30.40
5571;BMP180;2808;51.240;6.794;2022-08-11T07:27:27;101764.00;;;30.30
5571;BMP180;2808;51.240;6.794;2022-08-11T07:30:15;101762.00;;;30.10
5571;BMP180;2808;51.240;6.794;2022-08-11T07:32:48;101763.00;;;29.90
5571;BMP180;2808;51.240;6.794;2022-08-11T07:35:23;101755.00;;;29.90
5571;BMP180;2808;51.240;6.794;2022-08-11T07:38:01;101757.00;;;30.20
5571;BMP180;2808;51.240;6.794;2022-08-11T07:40:29;101751.00;;;30.40
5571;BMP180;2808;51.240;6.794;2022-08-11T07:43:04;101752.00;;;30.40
5571;BMP180;2808;51.240;6.794;2022-08-11T07:45:40;101756.00;;;30.60
5571;BMP180;2808;51.240;6.794;2022-08-11T07:48:29;101758.00;;;30.90
5571;BMP180;2808;51.240;6.794;2022-08-11T07:51:18;101762.00;;;30.90
5571;BMP180;2808;51.240;6.794;2022-08-11T07:54:14;101761.00;;;30.70
5571;BMP180;2808;51.240;6.794;2022-08-11T07:56:45;101755.00;;;30.60
5571;BMP180;2808;51.240;6.794;2022-08-11T07:59:17;101745.00;;;30.60
5571;BMP180;2808;51.240;6.794;2022-08-11T08:02:06;101751.00;;;30.50
5571;BMP180;2808;51.240;6.794;2022-08-11T08:04:52;101749.00;;;30.60
5571;BMP180;2808;51.240;6.794;2022-08-11T08:07:38;101749.00;;;31.00
5571;BMP180;2808;51.240;6.794;2022-08-11T08:10:25;101757.00;;;31.20
5571;BMP180;2808;51.240;6.794;2022-08-11T08:13:10;101749.00;;;31.30
5571;BMP180;2808;51.240;6.794;2022-08-11T08:15:59;101748.00;;;31.00
5571;BMP180;2808;51.240;6.794;2022-08-11T08:18:44;101761.00;;;31.10
5571;BMP180;2808;51.240;6.794;2022-08-11T08:21:29;101752.00;;;31.10
5571;BMP180;2808;51.240;6.794;2022-08-11T08:23:57;101752.00;;;31.10
5571;BMP180;2808;51.240;6.794;2022-08-11T08:26:30;101756.00;;;31.40
5571;BMP180;2808;51.240;6.794;2022-08-11T08:29:17;101765.00;;;31.30
5571;BMP180;2808;51.240;6.794;2022-08-11T08:32:09;101758.00;;;31.20
5571;BMP180;2808;51.240;6.794;2022-08-11T08:34:43;101763.00;;;31.30
5571;BMP180;2808;51.240;6.794;2022-08-11T08:37:17;101765.00;;;31.40
5571;BMP180;2808;51.240;6.794;2022-08-11T08:39:49;101759.00;;;31.50
5571;BMP180;2808;51.240;6.794;2022-08-11T08:42:23;101757.00;;;31.40
5571;BMP180;2808;51.240;6.794;2022-08-11T08:44:57;101764.00;;;31.20
5571;BMP180;2808;51.240;6.794;2022-08-11T08:47:26;101758.00;;;31.20
5571;BMP180;2808;51.240;6.794;2022-08-11T08:50:03;101755.00;;;31.20
5571;BMP180;2808;51.240;6.794;2022-08-11T08:52:41;101760.00;;;31.20
5571;BMP180;2808;51.240;6.794;2022-08-11T08:55:19;101760.00;;;31.20
5571;BMP180;2808;51.240;6.794;2022-08-11T08:57:53;101770.00;;;31.40
5571;BMP180;2808;51.240;6.794;2022-08-11T09:00:21;101773.00;;;31.50
5571;BMP180;2808;51.240;6.794;2022-08-11T09:02:52;101768.00;;;31.50
5571;BMP180;2808;51.240;6.794;2022-08-11T09:05:25;101763.00;;;31.40
5571;BMP180;2808;51.240;6.794;2022-08-11T09:07:55;101764.00;;;31.40
5571;BMP180;2808;51.240;6.794;2022-08-11T09:10:26;101769.00;;;31.20
5571;BMP180;2808;51.240;6.794;2022-08-11T09:13:03;101774.00;;;31.10
5571;BMP180;2808;51.240;6.794;2022-08-11T09:15:34;101767.00;;;31.00
5571;BMP180;2808;51.240;6.794;2022-08-11T09:18:03;101760.00;;;31.00
5571;BMP180;2808;51.240;6.794;2022-08-11T09:20:38;101767.00;;;31.10
5571;BMP180;2808;51.240;6.794;2022-08-11T09:23:07;101754.00;;;30.90
5571;BMP180;2808;51.240;6.794;2022-08-11T09:25:58;101757.00;;;31.00
5571;BMP180;2808;51.240;6.794;2022-08-11T09:28:47;101764.00;;;31.10
5571;BMP180;2808;51.240;6.794;2022-08-11T09:31:17;101756.00;;;31.20
5571;BMP180;2808;51.240;6.794;2022-08-11T09:33:51;101755.00;;;31.50
5571;BMP180;2808;51.240;6.794;2022-08-11T09:36:21;101760.00;;;31.60
5571;BMP180;2808;51.240;6.794;2022-08-11T09:39:07;101745.00;;;31.70
5571;BMP180;2808;51.240;6.794;2022-08-11T09:41:53;101751.00;;;31.60
5571;BMP180;2808;51.240;6.794;2022-08-11T09:44:53;101747.00;;;31.60
5571;BMP180;2808;51.240;6.794;2022-08-11T09:47:25;101743.00;;;31.60
5571;BMP180;2808;51.240;6.794;2022-08-11T09:49:56;101751.00;;;31.50
5571;BMP180;2808;51.240;6.794;2022-08-11T09:52:31;101745.00;;;31.50
5571;BMP180;2808;51.240;6.794;2022-08-11T09:55:15;101747.00;;;31.70
5571;BMP180;2808;51.240;6.794;2022-08-11T09:57:46;101746.00;;;31.70
5571;BMP180;2808;51.240;6.794;2022-08-11T10:00:34;101742.00;;;31.60
5571;BMP180;2808;51.240;6.794;2022-08-11T10:03:08;101737.00;;;31.60
5571;BMP180;2808;51.240;6.794;2022-08-11T10:05:38;101739.00;;;31.70
5571;BMP180;2808;51.240;6.794;2022-08-11T10:08:41;101744.00;;;31.50
5571;BMP180;2808;51.240;6.794;2022-08-11T10:11:13;101737.00;;;31.10
5571;BMP180;2808;51.240;6.794;2022-08-11T10:13:43;101738.00;;;30.80
5571;BMP180;2808;51.240;6.794;2022-08-11T10:16:28;101734.00;;;30.70
5571;BMP180;2808;51.240;6.794;2022-08-11T10:19:00;101735.00;;;30.80
5571;BMP180;2808;51.240;6.794;2022-08-11T10:21:34;101726.00;;;30.90
5571;BMP180;2808;51.240;6.794;2022-08-11T10:24:04;101729.00;;;31.00
5571;BMP180;2808;51.240;6.794;2022-08-11T10:26:51;101729.00;;;30.90
5571;BMP180;2808;51.240;6.794;2022-08-11T10:29:26;101712.00;;;31.00
5571;BMP180;2808;51.240;6.794;2022-08-11T10:32:13;101711.00;;;30.90
5571;BMP180;2808;51.240;6.794;2022-08-11T10:35:23;101710.00;;;30.80
5571;BMP180;2808;51.240;6.794;2022-08-11T10:38:15;101709.00;;;30.90
5571;BMP180;2808;51.240;6.794;2022-08-11T10:41:05;101712.00;;;30.90
5571;BMP180;2808;51.240;6.794;2022-08-11T10:46:55;101703.00;;;30.90
5571;BMP180;2808;51.240;6.794;2022-08-11T10:49:42;101691.00;;;30.90
5571;BMP180;2808;51.240;6.794;2022-08-11T10:52:30;101696.00;;;30.90
5571;BMP180;2808;51.240;6.794;2022-08-11T10:55:16;101693.00;;;31.00
5571;BMP180;2808;51.240;6.794;2022-08-11T10:58:01;101682.00;;;30.90
5571;BMP180;2808;51.240;6.794;2022-08-11T11:00:47;101692.00;;;30.90
5571;BMP180;2808;51.240;6.794;2022-08-11T11:03:17;101695.00;;;30.90
5571;BMP180;2808;51.240;6.794;2022-08-11T11:06:11;101674.00;;;30.70
5571;BMP180;2808;51.240;6.794;2022-08-11T11:08:45;101675.00;;;30.60
5571;BMP180;2808;51.240;6.794;2022-08-11T11:11:24;101673.00;;;30.60
5571;BMP180;2808;51.240;6.794;2022-08-11T11:14:17;101674.00;;;30.70
5571;BMP180;2808;51.240;6.794;2022-08-11T11:17:05;101670.00;;;30.50
5571;BMP180;2808;51.240;6.794;2022-08-11T11:19:54;101665.00;;;30.30
5571;BMP180;2808;51.240;6.794;2022-08-11T11:22:28;101661.00;;;30.30
5571;BMP180;2808;51.240;6.794;2022-08-11T11:25:20;101655.00;;;30.30
5571;BMP180;2808;51.240;6.794;2022-08-11T11:31:09;101652.00;;;30.30
5571;BMP180;2808;51.240;6.794;2022-08-11T11:33:58;101644.00;;;30.40
5571;BMP180;2808;51.240;6.794;2022-08-11T11:36:36;101644.00;;;30.40
5571;BMP180;2808;51.240;6.794;2022-08-11T11:39:11;101648.00;;;30.30
5571;BMP180;2808;51.240;6.794;2022-08-11T11:41:42;101643.00;;;30.30
5571;BMP180;2808;51.240;6.794;2022-08-11T11:44:12;101630.00;;;30.40
5571;BMP180;2808;51.240;6.794;2022-08-11T11:46:41;101633.00;;;30.50
5571;BMP180;2808;51.240;6.794;2022-08-11T11:49:12;101631.00;;;30.30
5571;BMP180;2808;51.240;6.794;2022-08-11T11:51:41;101624.00;;;30.40
5571;BMP180;2808;51.240;6.794;2022-08-11T11:54:12;101622.00;;;30.50
5571;BMP180;2808;51.240;6.794;2022-08-11T11:56:43;101622.00;;;30.60
5571;BMP180;2808;51.240;6.794;2022-08-11T11:59:12;101620.00;;;30.40
5571;BMP180;2808;51.240;6.794;2022-08-11T12:02:03;101627.00;;;30.10
5571;BMP180;2808;51.240;6.794;2022-08-11T12:04:31;101620.00;;;30.00
5571;BMP180;2808;51.240;6.794;2022-08-11T12:07:02;101614.00;;;29.90
5571;BMP180;2808;51.240;6.794;2022-08-11T12:09:48;101615.00;;;30.00
5571;BMP180;2808;51.240;6.794;2022-08-11T12:12:16;101613.00;;;30.10
5571;BMP180;2808;51.240;6.794;2022-08-11T12:15:01;101617.00;;;30.00
5571;BMP180;2808;51.240;6.794;2022-08-11T12:17:30;101598.00;;;30.00
5571;BMP180;2808;51.240;6.794;2022-08-11T12:19:57;101605.00;;;30.00
5571;BMP180;2808;51.240;6.794;2022-08-11T12:22:26;101598.00;;;30.00
5571;BMP180;2808;51.240;6.794;2022-08-11T12:25:12;101598.00;;;30.00
5571;BMP180;2808;51.240;6.794;2022-08-11T12:27:58;101594.00;;;30.10
5571;BMP180;2808;51.240;6.794;2022-08-11T12:30:26;101590.00;;;30.10
5571;BMP180;2808;51.240;6.794;2022-08-11T12:32:54;101589.00;;;30.10
5571;BMP180;2808;51.240;6.794;2022-08-11T12:35:22;101579.00;;;30.10
5571;BMP180;2808;51.240;6.794;2022-08-11T12:38:02;101580.00;;;30.30
5571;BMP180;2808;51.240;6.794;2022-08-11T12:40:32;101573.00;;;30.30
5571;BMP180;2808;51.240;6.794;2022-08-11T12:43:19;101566.00;;;30.30
5571;BMP180;2808;51.240;6.794;2022-08-11T12:46:08;101561.00;;;30.20
5571;BMP180;2808;51.240;6.794;2022-08-11T12:48:41;101560.00;;;30.30
5571;BMP180;2808;51.240;6.794;2022-08-11T12:51:31;101554.00;;;30.30
5571;BMP180;2808;51.240;6.794;2022-08-11T12:54:29;101551.00;;;30.40
5571;BMP180;2808;51.240;6.794;2022-08-11T12:57:03;101545.00;;;30.40
5571;BMP180;2808;51.240;6.794;2022-08-11T12:59:51;101540.00;;;30.40
5571;BMP180;2808;51.240;6.794;2022-08-11T13:02:36;101541.00;;;30.30
5571;BMP180;2808;51.240;6.794;2022-08-11T13:05:24;101545.00;;;30.30
5571;BMP180;2808;51.240;6.794;2022-08-11T13:07:52;101547.00;;;30.30
5571;BMP180;2808;51.240;6.794;2022-08-11T13:10:20;101540.00;;;30.20
5571;BMP180;2808;51.240;6.794;2022-08-11T13:13:06;101531.00;;;30.10
5571;BMP180;2808;51.240;6.794;2022-08-11T13:15:36;101539.00;;;30.10
5571;BMP180;2808;51.240;6.794;2022-08-11T13:18:04;101532.00;;;30.10
5571;BMP180;2808;51.240;6.794;2022-08-11T13:20:37;101544.00;;;30.20
5571;BMP180;2808;51.240;6.794;2022-08-11T13:23:08;101525.00;;;30.20
5571;BMP180;2808;51.240;6.794;2022-08-11T13:25:41;101522.00;;;30.10
5571;BMP180;2808;51.240;6.794;2022-08-11T13:28:17;101521.00;;;30.10
5571;BMP180;2808;51.240;6.794;2022-08-11T13:30:47;101528.00;;;30.20
5571;BMP180;2808;51.240;6.794;2022-08-11T13:33:53;101517.00;;;30.30
5571;BMP180;2808;51.240;6.794;2022-08-11T13:36:26;101516.00;;;30.40
5571;BMP180;2808;51.240;6.794;2022-08-11T13:38:57;101526.00;;;30.30
5571;BMP180;2808;51.240;6.794;2022-08-11T13:41:26;101516.00;;;30.30
5571;BMP180;2808;51.240;6.794;2022-08-11T13:44:10;101512.00;;;30.30
5571;BMP180;2808;51.240;6.794;2022-08-11T13:46:39;101517.00;;;30.30
5571;BMP180;2808;51.240;6.794;2022-08-11T13:49:16;101508.00;;;30.40
5571;BMP180;2808;51.240;6.794;2022-08-11T13:51:46;101519.00;;;30.40
5571;BMP180;2808;51.240;6.794;2022-08-11T13:54:17;101505.00;;;30.40
5571;BMP180;2808;51.240;6.794;2022-08-11T13:56:51;101509.00;;;30.40
5571;BMP180;2808;51.240;6.794;2022-08-11T13:59:20;101509.00;;;30.50
5571;BMP180;2808;51.240;6.794;2022-08-11T14:01:56;101511.00;;;30.40
5571;BMP180;2808;51.240;6.794;2022-08-11T14:04:31;101505.00;;;30.30
5571;BMP180;2808;51.240;6.794;2022-08-11T14:07:09;101495.00;;;30.20
5571;BMP180;2808;51.240;6.794;2022-08-11T14:09:46;101492.00;;;30.30
5571;BMP180;2808;51.240;6.794;2022-08-11T14:12:20;101491.00;;;30.30
5571;BMP180;2808;51.240;6.794;2022-08-11T14:15:17;101489.00;;;30.30
5571;BMP180;2808;51.240;6.794;2022-08-11T14:17:58;101487.00;;;30.30
5571;BMP180;2808;51.240;6.794;2022-08-11T14:20:34;101488.00;;;30.30
5571;BMP180;2808;51.240;6.794;2022-08-11T14:23:23;101489.00;;;30.40
5571;BMP180;2808;51.240;6.794;2022-08-11T14:25:55;101491.00;;;30.40
5571;BMP180;2808;51.240;6.794;2022-08-11T14:29:01;101485.00;;;30.40
5571;BMP180;2808;51.240;6.794;2022-08-11T14:31:34;101489.00;;;30.40
5571;BMP180;2808;51.240;6.794;2022-08-11T14:34:03;101476.00;;;30.40
5571;BMP180;2808;51.240;6.794;2022-08-11T14:36:38;101477.00;;;30.40
5571;BMP180;2808;51.240;6.794;2022-08-11T14:39:11;101473.00;;;30.40
5571;BMP180;2808;51.240;6.794;2022-08-11T14:41:47;101483.00;;;30.40
5571;BMP180;2808;51.240;6.794;2022-08-11T14:44:37;101474.00;;;30.30
5571;BMP180;2808;51.240;6.794;2022-08-11T14:47:29;101465.00;;;30.30
5571;BMP180;2808;51.240;6.794;2022-08-11T14:49:58;101462.00;;;30.30
5571;BMP180;2808;51.240;6.794;2022-08-11T14:52:32;101464.00;;;30.40
5571;BMP180;2808;51.240;6.794;2022-08-11T14:58:27;101474.00;;;30.30
5571;BMP180;2808;51.240;6.794;2022-08-11T15:00:57;101477.00;;;30.30
5571;BMP180;2808;51.240;6.794;2022-08-11T15:03:36;101466.00;;;30.30
5571;BMP180;2808;51.240;6.794;2022-08-11T15:06:04;101458.00;;;30.20
5571;BMP180;2808;51.240;6.794;2022-08-11T15:08:37;101449.00;;;30.20
5571;BMP180;2808;51.240;6.794;2022-08-11T15:11:32;101454.00;;;30.20
5571;BMP180;2808;51.240;6.794;2022-08-11T15:17:45;101463.00;;;30.20
5571;BMP180;2808;51.240;6.794;2022-08-11T15:20:45;101445.00;;;30.20
5571;BMP180;2808;51.240;6.794;2022-08-11T15:23:33;101432.00;;;30.20
5571;BMP180;2808;51.240;6.794;2022-08-11T15:26:21;101430.00;;;30.20
5571;BMP180;2808;51.240;6.794;2022-08-11T15:29:13;101427.00;;;30.20
5571;BMP180;2808;51.240;6.794;2022-08-11T15:31:59;101435.00;;;30.30
5571;BMP180;2808;51.240;6.794;2022-08-11T15:34:48;101431.00;;;30.30
5571;BMP180;2808;51.240;6.794;2022-08-11T15:37:35;101423.00;;;30.20
5571;BMP180;2808;51.240;6.794;2022-08-11T15:40:15;101423.00;;;30.20
5571;BMP180;2808;51.240;6.794;2022-08-11T15:43:08;101430.00;;;30.30
5571;BMP180;2808;51.240;6.794;2022-08-11T15:45:56;101431.00;;;30.30
5571;BMP180;2808;51.240;6.794;2022-08-11T15:48:33;101418.00;;;30.30
5571;BMP180;2808;51.240;6.794;2022-08-11T15:51:08;101412.00;;;30.30
5571;BMP180;2808;51.240;6.794;2022-08-11T15:53:42;101417.00;;;30.30
5571;BMP180;2808;51.240;6.794;2022-08-11T15:56:15;101415.00;;;30.30
5571;BMP180;2808;51.240;6.794;2022-08-11T15:58:46;101419.00;;;30.30
5571;BMP180;2808;51.240;6.794;2022-08-11T16:01:32;101415.00;;;30.20
5571;BMP180;2808;51.240;6.794;2022-08-11T16:04:19;101403.00;;;30.20
5571;BMP180;2808;51.240;6.794;2022-08-11T16:06:52;101412.00;;;30.10
5571;BMP180;2808;51.240;6.794;2022-08-11T16:09:25;101408.00;;;30.10
5571;BMP180;2808;51.240;6.794;2022-08-11T16:11:55;101402.00;;;30.10
5571;BMP180;2808;51.240;6.794;2022-08-11T16:14:26;101394.00;;;30.10
5571;BMP180;2808;51.240;6.794;2022-08-11T16:17:13;101402.00;;;30.10
5571;BMP180;2808;51.240;6.794;2022-08-11T16:19:44;101396.00;;;30.10
5571;BMP180;2808;51.240;6.794;2022-08-11T16:22:15;101395.00;;;30.10
5571;BMP180;2808;51.240;6.794;2022-08-11T16:24:49;101396.00;;;30.10
5571;BMP180;2808;51.240;6.794;2022-08-11T16:27:18;101399.00;;;30.10
5571;BMP180;2808;51.240;6.794;2022-08-11T16:29:47;101394.00;;;30.10
5571;BMP180;2808;51.240;6.794;2022-08-11T16:32:21;101393.00;;;30.10
5571;BMP180;2808;51.240;6.794;2022-08-11T16:34:56;101394.00;;;30.10
5571;BMP180;2808;51.240;6.794;2022-08-11T16:37:43;101394.00;;;30.10
5571;BMP180;2808;51.240;6.794;2022-08-11T16:40:30;101405.00;;;30.10
5571;BMP180;2808;51.240;6.794;2022-08-11T16:42:59;101401.00;;;30.00
5571;BMP180;2808;51.240;6.794;2022-08-11T16:45:45;101400.00;;;30.00
5571;BMP180;2808;51.240;6.794;2022-08-11T16:52:47;101389.00;;;30.00
5571;BMP180;2808;51.240;6.794;2022-08-11T17:33:28;101376.00;;;29.50
5571;BMP180;2808;51.240;6.794;2022-08-11T17:36:16;101374.00;;;29.50
5571;BMP180;2808;51.240;6.794;2022-08-11T17:43:29;101383.00;;;29.40
5571;BMP180;2808;51.240;6.794;2022-08-11T17:46:52;101388.00;;;29.40
5571;BMP180;2808;51.240;6.794;2022-08-11T17:49:47;101380.00;;;29.30
5571;BMP180;2808;51.240;6.794;2022-08-11T17:52:52;101382.00;;;29.30
5571;BMP180;2808;51.240;6.794;2022-08-11T17:56:01;101378.00;;;29.20
5571;BMP180;2808;51.240;6.794;2022-08-11T18:02:41;101385.00;;;29.10
5571;BMP180;2808;51.240;6.794;2022-08-11T18:05:47;101390.00;;;29.00
5571;BMP180;2808;51.240;6.794;2022-08-11T18:09:06;101386.00;;;29.00
5571;BMP180;2808;51.240;6.794;2022-08-11T18:12:13;101383.00;;;29.00
5571;BMP180;2808;51.240;6.794;2022-08-11T18:16:03;101397.00;;;28.90
5571;BMP180;2808;51.240;6.794;2022-08-11T18:19:24;101401.00;;;28.80
5571;BMP180;2808;51.240;6.794;2022-08-11T18:29:12;101383.00;;;28.60
5571;BMP180;2808;51.240;6.794;2022-08-11T18:32:05;101386.00;;;28.50
5571;BMP180;2808;51.240;6.794;2022-08-11T18:34:56;101393.00;;;28.50
5571;BMP180;2808;51.240;6.794;2022-08-11T18:37:46;101391.00;;;28.40
5571;BMP180;2808;51.240;6.794;2022-08-11T18:40:39;101386.00;;;28.30
5571;BMP180;2808;51.240;6.794;2022-08-11T18:43:36;101393.00;;;28.30
5571;BMP180;2808;51.240;6.794;2022-08-11T18:46:37;101394.00;;;28.20
5571;BMP180;2808;51.240;6.794;2022-08-11T18:49:28;101399.00;;;28.10
5571;BMP180;2808;51.240;6.794;2022-08-11T18:52:20;101392.00;;;28.10
5571;BMP180;2808;51.240;6.794;2022-08-11T18:55:10;101393.00;;;28.00
5571;BMP180;2808;51.240;6.794;2022-08-11T18:57:59;101396.00;;;27.90
5571;BMP180;2808;51.240;6.794;2022-08-11T19:00:46;101400.00;;;27.90
5571;BMP180;2808;51.240;6.794;2022-08-11T19:03:33;101403.00;;;27.80
5571;BMP180;2808;51.240;6.794;2022-08-11T19:06:21;101409.00;;;27.70
5571;BMP180;2808;51.240;6.794;2022-08-11T19:09:11;101415.00;;;27.70
5571;BMP180;2808;51.240;6.794;2022-08-11T19:11:57;101415.00;;;27.60
5571;BMP180;2808;51.240;6.794;2022-08-11T19:14:44;101420.00;;;27.50
5571;BMP180;2808;51.240;6.794;2022-08-11T19:17:32;101427.00;;;27.50
5571;BMP180;2808;51.240;6.794;2022-08-11T19:20:23;101423.00;;;27.40
5571;BMP180;2808;51.240;6.794;2022-08-11T19:23:11;101430.00;;;27.30
5571;BMP180;2808;51.240;6.794;2022-08-11T19:25:56;101419.00;;;27.30
5571;BMP180;2808;51.240;6.794;2022-08-11T19:28:45;101428.00;;;27.20